<?xml version="1.0" encoding="UTF-8" standalone="no" ?>
<gpx xmlns="http://www.topografix.com/GPX/1/1" xmlns:xsi="http://www.w3.org/2001/XMLSchema-instance" xsi:schemaLocation="http://www.topografix.com/GPX/1/1 http://www.topografix.com/GPX/1/1/gpx.xsd" version="1.1" creator="VisuGPX - https://www.visugpx.com">
  <metadata>
    <name>Marche Lucas 3km 2025</name>
  </metadata>
  <trk>
    <name><![CDATA[3 KM LUCAS-18892191]]></name>
    <extensions>
      <line xmlns="http://www.topografix.com/GPX/gpx_style/0/2">
        <color>0000FF</color>
        <width>4</width>
      </line>
    </extensions>
    <trkseg>
      <trkpt lat="45.61778" lon="4.42117">
        <ele>469</ele>
        <time>2025-02-07T20:25:45Z</time>
      </trkpt>
      <trkpt lat="45.61804" lon="4.42192">
        <ele>469</ele>
        <time>2025-02-07T20:27:03Z</time>
      </trkpt>
      <trkpt lat="45.61803" lon="4.42194">
        <ele>469</ele>
        <time>2025-02-07T20:27:05Z</time>
      </trkpt>
      <trkpt lat="45.61791" lon="4.42205">
        <ele>469</ele>
        <time>2025-02-07T20:27:24Z</time>
      </trkpt>
      <trkpt lat="45.61771" lon="4.42237">
        <ele>469</ele>
        <time>2025-02-07T20:28:05Z</time>
      </trkpt>
      <trkpt lat="45.61769" lon="4.4224">
        <ele>469</ele>
        <time>2025-02-07T20:28:08Z</time>
      </trkpt>
      <trkpt lat="45.61761" lon="4.42259">
        <ele>470</ele>
        <time>2025-02-07T20:28:29Z</time>
      </trkpt>
      <trkpt lat="45.61757" lon="4.42277">
        <ele>471</ele>
        <time>2025-02-07T20:28:47Z</time>
      </trkpt>
      <trkpt lat="45.61751" lon="4.42343">
        <ele>475</ele>
        <time>2025-02-07T20:29:49Z</time>
      </trkpt>
      <trkpt lat="45.61746" lon="4.42363">
        <ele>477</ele>
        <time>2025-02-07T20:30:09Z</time>
      </trkpt>
      <trkpt lat="45.61746" lon="4.42364">
        <ele>477</ele>
        <time>2025-02-07T20:30:10Z</time>
      </trkpt>
      <trkpt lat="45.61752" lon="4.42377">
        <ele>476</ele>
        <time>2025-02-07T20:30:24Z</time>
      </trkpt>
      <trkpt lat="45.61774" lon="4.42445">
        <ele>477</ele>
        <time>2025-02-07T20:31:34Z</time>
      </trkpt>
      <trkpt lat="45.61787" lon="4.42479">
        <ele>477</ele>
        <time>2025-02-07T20:32:10Z</time>
      </trkpt>
      <trkpt lat="45.61787" lon="4.42486">
        <ele>477</ele>
        <time>2025-02-07T20:32:17Z</time>
      </trkpt>
      <trkpt lat="45.61789" lon="4.42566">
        <ele>483</ele>
        <time>2025-02-07T20:33:31Z</time>
      </trkpt>
      <trkpt lat="45.618" lon="4.42634">
        <ele>489</ele>
        <time>2025-02-07T20:34:37Z</time>
      </trkpt>
      <trkpt lat="45.61799" lon="4.42635">
        <ele>489</ele>
        <time>2025-02-07T20:34:38Z</time>
      </trkpt>
      <trkpt lat="45.61796" lon="4.4264">
        <ele>489</ele>
        <time>2025-02-07T20:34:44Z</time>
      </trkpt>
      <trkpt lat="45.61786" lon="4.42648">
        <ele>490</ele>
        <time>2025-02-07T20:35:00Z</time>
      </trkpt>
      <trkpt lat="45.61758" lon="4.4268">
        <ele>494</ele>
        <time>2025-02-07T20:35:48Z</time>
      </trkpt>
      <trkpt lat="45.61748" lon="4.427">
        <ele>495</ele>
        <time>2025-02-07T20:36:10Z</time>
      </trkpt>
      <trkpt lat="45.61743" lon="4.42716">
        <ele>496</ele>
        <time>2025-02-07T20:36:27Z</time>
      </trkpt>
      <trkpt lat="45.61737" lon="4.42732">
        <ele>497</ele>
        <time>2025-02-07T20:36:44Z</time>
      </trkpt>
      <trkpt lat="45.61729" lon="4.42768">
        <ele>500</ele>
        <time>2025-02-07T20:37:19Z</time>
      </trkpt>
      <trkpt lat="45.61724" lon="4.42819">
        <ele>504</ele>
        <time>2025-02-07T20:38:07Z</time>
      </trkpt>
      <trkpt lat="45.61733" lon="4.42837">
        <ele>505</ele>
        <time>2025-02-07T20:38:28Z</time>
      </trkpt>
      <trkpt lat="45.61747" lon="4.42858">
        <ele>506</ele>
        <time>2025-02-07T20:38:55Z</time>
      </trkpt>
      <trkpt lat="45.61757" lon="4.42876">
        <ele>508</ele>
        <time>2025-02-07T20:39:16Z</time>
      </trkpt>
      <trkpt lat="45.61763" lon="4.42902">
        <ele>510</ele>
        <time>2025-02-07T20:39:42Z</time>
      </trkpt>
      <trkpt lat="45.61769" lon="4.42914">
        <ele>511</ele>
        <time>2025-02-07T20:39:56Z</time>
      </trkpt>
      <trkpt lat="45.6178" lon="4.42926">
        <ele>513</ele>
        <time>2025-02-07T20:40:14Z</time>
      </trkpt>
      <trkpt lat="45.61791" lon="4.42935">
        <ele>515</ele>
        <time>2025-02-07T20:40:31Z</time>
      </trkpt>
      <trkpt lat="45.61789" lon="4.4294">
        <ele>515</ele>
        <time>2025-02-07T20:40:36Z</time>
      </trkpt>
      <trkpt lat="45.61765" lon="4.42993">
        <ele>517</ele>
        <time>2025-02-07T20:41:35Z</time>
      </trkpt>
      <trkpt lat="45.61743" lon="4.43065">
        <ele>521</ele>
        <time>2025-02-07T20:42:49Z</time>
      </trkpt>
      <trkpt lat="45.61732" lon="4.43146">
        <ele>531</ele>
        <time>2025-02-07T20:44:06Z</time>
      </trkpt>
      <trkpt lat="45.61704" lon="4.4314">
        <ele>531</ele>
        <time>2025-02-07T20:44:43Z</time>
      </trkpt>
      <trkpt lat="45.61696" lon="4.43133">
        <ele>530</ele>
        <time>2025-02-07T20:44:56Z</time>
      </trkpt>
      <trkpt lat="45.61668" lon="4.43088">
        <ele>526</ele>
        <time>2025-02-07T20:45:52Z</time>
      </trkpt>
      <trkpt lat="45.61633" lon="4.43029">
        <ele>531</ele>
        <time>2025-02-07T20:47:04Z</time>
      </trkpt>
      <trkpt lat="45.6161" lon="4.42985">
        <ele>532</ele>
        <time>2025-02-07T20:47:56Z</time>
      </trkpt>
      <trkpt lat="45.61593" lon="4.42967">
        <ele>532</ele>
        <time>2025-02-07T20:48:24Z</time>
      </trkpt>
      <trkpt lat="45.61576" lon="4.42953">
        <ele>531</ele>
        <time>2025-02-07T20:48:50Z</time>
      </trkpt>
      <trkpt lat="45.61571" lon="4.42953">
        <ele>531</ele>
        <time>2025-02-07T20:48:57Z</time>
      </trkpt>
      <trkpt lat="45.61565" lon="4.42956">
        <ele>531</ele>
        <time>2025-02-07T20:49:05Z</time>
      </trkpt>
      <trkpt lat="45.61547" lon="4.42975">
        <ele>533</ele>
        <time>2025-02-07T20:49:35Z</time>
      </trkpt>
      <trkpt lat="45.6149" lon="4.43023">
        <ele>539</ele>
        <time>2025-02-07T20:51:03Z</time>
      </trkpt>
      <trkpt lat="45.61462" lon="4.43034">
        <ele>540</ele>
        <time>2025-02-07T20:51:42Z</time>
      </trkpt>
      <trkpt lat="45.61449" lon="4.43035">
        <ele>540</ele>
        <time>2025-02-07T20:51:59Z</time>
      </trkpt>
      <trkpt lat="45.61442" lon="4.43027">
        <ele>539</ele>
        <time>2025-02-07T20:52:11Z</time>
      </trkpt>
      <trkpt lat="45.61431" lon="4.43002">
        <ele>535</ele>
        <time>2025-02-07T20:52:39Z</time>
      </trkpt>
      <trkpt lat="45.61427" lon="4.42995">
        <ele>534</ele>
        <time>2025-02-07T20:52:47Z</time>
      </trkpt>
      <trkpt lat="45.61419" lon="4.42993">
        <ele>534</ele>
        <time>2025-02-07T20:52:58Z</time>
      </trkpt>
      <trkpt lat="45.61407" lon="4.42993">
        <ele>534</ele>
        <time>2025-02-07T20:53:14Z</time>
      </trkpt>
      <trkpt lat="45.61346" lon="4.43003">
        <ele>534</ele>
        <time>2025-02-07T20:54:36Z</time>
      </trkpt>
      <trkpt lat="45.61285" lon="4.43027">
        <ele>537</ele>
        <time>2025-02-07T20:56:01Z</time>
      </trkpt>
      <trkpt lat="45.61276" lon="4.43033">
        <ele>538</ele>
        <time>2025-02-07T20:56:14Z</time>
      </trkpt>
      <trkpt lat="45.61242" lon="4.43027">
        <ele>534</ele>
        <time>2025-02-07T20:57:00Z</time>
      </trkpt>
      <trkpt lat="45.61207" lon="4.43007">
        <ele>527</ele>
        <time>2025-02-07T20:57:50Z</time>
      </trkpt>
      <trkpt lat="45.6118" lon="4.42998">
        <ele>525</ele>
        <time>2025-02-07T20:58:27Z</time>
      </trkpt>
      <trkpt lat="45.61167" lon="4.4298">
        <ele>524</ele>
        <time>2025-02-07T20:58:51Z</time>
      </trkpt>
      <trkpt lat="45.61154" lon="4.42929">
        <ele>523</ele>
        <time>2025-02-07T20:59:42Z</time>
      </trkpt>
      <trkpt lat="45.61141" lon="4.42907">
        <ele>523</ele>
        <time>2025-02-07T21:00:09Z</time>
      </trkpt>
      <trkpt lat="45.61124" lon="4.42903">
        <ele>524</ele>
        <time>2025-02-07T21:00:32Z</time>
      </trkpt>
      <trkpt lat="45.61105" lon="4.42911">
        <ele>526</ele>
        <time>2025-02-07T21:00:58Z</time>
      </trkpt>
      <trkpt lat="45.61047" lon="4.42879">
        <ele>528</ele>
        <time>2025-02-07T21:02:21Z</time>
      </trkpt>
      <trkpt lat="45.61073" lon="4.42829">
        <ele>523</ele>
        <time>2025-02-07T21:03:19Z</time>
      </trkpt>
      <trkpt lat="45.61103" lon="4.42815">
        <ele>524</ele>
        <time>2025-02-07T21:04:01Z</time>
      </trkpt>
      <trkpt lat="45.61161" lon="4.4279">
        <ele>523</ele>
        <time>2025-02-07T21:05:22Z</time>
      </trkpt>
      <trkpt lat="45.61287" lon="4.42714">
        <ele>523</ele>
        <time>2025-02-07T21:08:25Z</time>
      </trkpt>
      <trkpt lat="45.61312" lon="4.42675">
        <ele>523</ele>
        <time>2025-02-07T21:09:14Z</time>
      </trkpt>
      <trkpt lat="45.6134" lon="4.42612">
        <ele>523</ele>
        <time>2025-02-07T21:10:24Z</time>
      </trkpt>
      <trkpt lat="45.61372" lon="4.42547">
        <ele>522</ele>
        <time>2025-02-07T21:11:38Z</time>
      </trkpt>
      <trkpt lat="45.61373" lon="4.42536">
        <ele>522</ele>
        <time>2025-02-07T21:11:48Z</time>
      </trkpt>
      <trkpt lat="45.61389" lon="4.42523">
        <ele>521</ele>
        <time>2025-02-07T21:12:13Z</time>
      </trkpt>
      <trkpt lat="45.61423" lon="4.42486">
        <ele>518</ele>
        <time>2025-02-07T21:13:10Z</time>
      </trkpt>
      <trkpt lat="45.61458" lon="4.42466">
        <ele>516</ele>
        <time>2025-02-07T21:14:00Z</time>
      </trkpt>
      <trkpt lat="45.61469" lon="4.42462">
        <ele>515</ele>
        <time>2025-02-07T21:14:15Z</time>
      </trkpt>
      <trkpt lat="45.61475" lon="4.42456">
        <ele>514</ele>
        <time>2025-02-07T21:14:25Z</time>
      </trkpt>
      <trkpt lat="45.6149" lon="4.42436">
        <ele>511</ele>
        <time>2025-02-07T21:14:52Z</time>
      </trkpt>
      <trkpt lat="45.61515" lon="4.42414">
        <ele>507</ele>
        <time>2025-02-07T21:15:32Z</time>
      </trkpt>
      <trkpt lat="45.61543" lon="4.424">
        <ele>503</ele>
        <time>2025-02-07T21:16:11Z</time>
      </trkpt>
      <trkpt lat="45.61562" lon="4.42394">
        <ele>501</ele>
        <time>2025-02-07T21:16:37Z</time>
      </trkpt>
      <trkpt lat="45.61673" lon="4.42387">
        <ele>486</ele>
        <time>2025-02-07T21:19:05Z</time>
      </trkpt>
      <trkpt lat="45.61686" lon="4.42381">
        <ele>484</ele>
        <time>2025-02-07T21:19:24Z</time>
      </trkpt>
      <trkpt lat="45.6171" lon="4.42361">
        <ele>480</ele>
        <time>2025-02-07T21:20:01Z</time>
      </trkpt>
      <trkpt lat="45.61714" lon="4.42361">
        <ele>480</ele>
        <time>2025-02-07T21:20:06Z</time>
      </trkpt>
      <trkpt lat="45.61717" lon="4.42364">
        <ele>480</ele>
        <time>2025-02-07T21:20:11Z</time>
      </trkpt>
      <trkpt lat="45.6173" lon="4.42389">
        <ele>479</ele>
        <time>2025-02-07T21:20:40Z</time>
      </trkpt>
      <trkpt lat="45.61737" lon="4.42427">
        <ele>480</ele>
        <time>2025-02-07T21:21:17Z</time>
      </trkpt>
      <trkpt lat="45.61741" lon="4.42437">
        <ele>479</ele>
        <time>2025-02-07T21:21:27Z</time>
      </trkpt>
      <trkpt lat="45.61751" lon="4.42442">
        <ele>478</ele>
        <time>2025-02-07T21:21:42Z</time>
      </trkpt>
      <trkpt lat="45.61761" lon="4.42443">
        <ele>478</ele>
        <time>2025-02-07T21:21:55Z</time>
      </trkpt>
      <trkpt lat="45.61763" lon="4.42441">
        <ele>477</ele>
        <time>2025-02-07T21:21:58Z</time>
      </trkpt>
      <trkpt lat="45.61771" lon="4.42436">
        <ele>477</ele>
        <time>2025-02-07T21:22:10Z</time>
      </trkpt>
      <trkpt lat="45.61752" lon="4.42377">
        <ele>476</ele>
        <time>2025-02-07T21:23:10Z</time>
      </trkpt>
      <trkpt lat="45.61746" lon="4.42363">
        <ele>477</ele>
        <time>2025-02-07T21:23:26Z</time>
      </trkpt>
      <trkpt lat="45.61751" lon="4.42343">
        <ele>475</ele>
        <time>2025-02-07T21:23:46Z</time>
      </trkpt>
      <trkpt lat="45.61757" lon="4.42277">
        <ele>471</ele>
        <time>2025-02-07T21:24:48Z</time>
      </trkpt>
      <trkpt lat="45.61761" lon="4.42259">
        <ele>470</ele>
        <time>2025-02-07T21:25:05Z</time>
      </trkpt>
      <trkpt lat="45.61771" lon="4.42237">
        <ele>469</ele>
        <time>2025-02-07T21:25:30Z</time>
      </trkpt>
      <trkpt lat="45.61791" lon="4.42205">
        <ele>469</ele>
        <time>2025-02-07T21:26:10Z</time>
      </trkpt>
      <trkpt lat="45.61804" lon="4.42192">
        <ele>469</ele>
        <time>2025-02-07T21:26:31Z</time>
      </trkpt>
      <trkpt lat="45.61777" lon="4.42113">
        <ele>469</ele>
        <time>2025-02-07T21:27:53Z</time>
      </trkpt>
    </trkseg>
  </trk>
</gpx>